Time;durP1;ratioP1;P1;durP2;ratioP2;P2;SDS_P1;SDS_P2;PMS_P1;PMS_P2;Temp;Humidity;BMP_temperature;BMP_pressure;BME280_temperature;BME280_humidity;BME280_pressure;Samples;Min_cycle;Max_cycle;Signal;HPM_P1;HPM_P2
2022/11/07 00:01:44;;;;;;;6.23;3.17;;;23.60;99.90;;;;;;5071299;28;20258;-69
2022/11/07 00:04:12;;;;;;;7.37;3.50;;;24.00;99.90;;;;;;5071416;28;20221;-69
2022/11/07 00:06:39;;;;;;;11.20;3.00;;;23.80;99.90;;;;;;5069187;28;20197;-68
2022/11/07 00:09:07;;;;;;;9.23;3.30;;;23.70;99.90;;;;;;5064966;28;20579;-69
2022/11/07 00:11:34;;;;;;;7.03;3.70;;;23.40;99.90;;;;;;5060459;28;20197;-71
2022/11/07 00:14:02;;;;;;;8.37;5.20;;;23.20;99.90;;;;;;5051007;28;20630;-68
2022/11/07 00:16:29;;;;;;;12.07;5.03;;;23.20;99.90;;;;;;5053509;28;20191;-69
2022/11/07 00:18:57;;;;;;;11.67;5.10;;;23.40;99.90;;;;;;5091406;28;20175;-68
2022/11/07 00:21:24;;;;;;;9.73;5.10;;;24.20;99.90;;;;;;5087424;28;20190;-73
2022/11/07 00:23:51;;;;;;;11.50;5.07;;;24.60;99.90;;;;;;5074746;28;20242;-72
2022/11/07 00:26:19;;;;;;;9.00;5.57;;;24.50;99.90;;;;;;5075431;28;20172;-70
2022/11/07 00:28:46;;;;;;;9.80;5.00;;;25.20;99.90;;;;;;5075086;28;20575;-72
2022/11/07 00:31:15;;;;;;;8.83;4.90;;;25.10;99.90;;;;;;5075253;28;20175;-74
2022/11/07 00:33:43;;;;;;;9.83;4.83;;;24.60;99.90;;;;;;5075590;28;20180;-69
2022/11/07 00:36:24;;;;;;;10.40;5.37;;;24.30;99.90;;;;;;5081850;28;20201;-71
2022/11/07 00:38:52;;;;;;;7.60;4.93;;;24.10;99.90;;;;;;5081176;28;20207;-70
2022/11/07 00:41:21;;;;;;;8.80;5.13;;;24.20;99.90;;;;;;5080092;28;20183;-72
2022/11/07 00:43:48;;;;;;;13.20;5.20;;;24.20;99.90;;;;;;5076705;28;20601;-73
2022/11/07 00:46:18;;;;;;;9.03;4.63;;;24.20;99.90;;;;;;5075956;28;20180;-74
2022/11/07 00:48:46;;;;;;;8.67;5.10;;;24.40;99.90;;;;;;5072888;28;20203;-72
2022/11/07 00:51:20;;;;;;;12.50;4.50;;;24.50;99.90;;;;;;5074757;28;20199;-74
2022/11/07 00:53:47;;;;;;;7.60;4.53;;;25.60;99.90;;;;;;5074675;28;20249;-74
2022/11/07 00:56:18;;;;;;;8.97;4.77;;;26.30;99.90;;;;;;5074437;28;20225;-74
2022/11/07 00:58:45;;;;;;;7.80;3.97;;;26.00;99.90;;;;;;5075097;28;20213;-73
2022/11/07 01:01:21;;;;;;;6.57;3.33;;;25.80;99.90;;;;;;5073921;28;20658;-75
2022/11/07 01:06:37;;;;;;;6.20;3.23;;;25.70;99.90;;;;;;5074622;28;20656;-72
2022/11/07 01:09:10;;;;;;;12.90;3.77;;;25.60;99.90;;;;;;5074451;28;20260;-74
2022/11/07 01:11:39;;;;;;;10.57;3.03;;;25.50;99.90;;;;;;5073859;28;20241;-73
2022/11/07 01:14:07;;;;;;;8.77;3.43;;;25.50;99.90;;;;;;5074151;28;20629;-73
2022/11/07 01:16:37;;;;;;;7.00;3.03;;;25.50;99.90;;;;;;5074086;28;20622;-72
2022/11/07 01:19:06;;;;;;;6.27;2.83;;;25.30;99.90;;;;;;5034291;28;20185;-74
2022/11/07 01:21:33;;;;;;;8.63;2.80;;;25.10;99.90;;;;;;5068154;28;20187;-72
2022/11/07 01:24:02;;;;;;;6.07;2.67;;;25.30;99.90;;;;;;5074017;28;20569;-73
2022/11/07 01:26:30;;;;;;;9.30;2.70;;;25.40;99.90;;;;;;5074022;28;20204;-75
2022/11/07 01:28:57;;;;;;;8.20;3.03;;;25.40;99.90;;;;;;5072828;28;20268;-73
2022/11/07 01:31:24;;;;;;;6.47;2.40;;;25.40;99.90;;;;;;5073832;28;20258;-72
2022/11/07 01:33:52;;;;;;;5.03;2.73;;;25.60;99.90;;;;;;5073713;28;20211;-72
2022/11/07 01:36:19;;;;;;;3.60;2.00;;;25.00;99.90;;;;;;5073778;28;20234;-71
2022/11/07 01:38:48;;;;;;;5.70;2.40;;;24.90;99.90;;;;;;5073804;28;20176;-70
2022/11/07 01:41:21;;;;;;;9.33;2.50;;;24.80;99.90;;;;;;5072209;28;20180;-72
2022/11/07 01:44:02;;;;;;;8.40;2.73;;;24.60;99.90;;;;;;5089272;28;20180;-71
2022/11/07 01:46:41;;;;;;;5.37;2.43;;;24.40;99.90;;;;;;5073374;28;20191;-73
2022/11/07 01:49:11;;;;;;;8.10;2.20;;;24.50;99.90;;;;;;5073339;28;20210;-71
2022/11/07 01:51:50;;;;;;;5.37;1.70;;;24.80;99.90;;;;;;5072078;28;20317;-71
2022/11/07 01:54:25;;;;;;;11.60;1.87;;;25.00;99.90;;;;;;5053408;28;20725;-74
2022/11/07 01:56:56;;;;;;;9.27;2.10;;;25.00;99.90;;;;;;5053568;28;20218;-73
2022/11/07 01:59:27;;;;;;;6.03;2.10;;;25.40;99.90;;;;;;5055163;28;20204;-73
2022/11/07 02:01:54;;;;;;;9.77;1.90;;;26.10;99.90;;;;;;5088758;28;20635;-71
2022/11/07 02:04:27;;;;;;;4.10;1.30;;;26.40;99.90;;;;;;5073258;28;20206;-72
2022/11/07 02:07:23;;;;;;;3.60;1.03;;;27.00;99.90;;;;;;5088715;28;20618;-72
2022/11/07 02:09:55;;;;;;;4.97;1.10;;;27.80;99.90;;;;;;5068312;28;20227;-73
2022/11/07 02:12:27;;;;;;;4.43;1.40;;;27.80;99.90;;;;;;5073230;28;20176;-71
2022/11/07 02:14:55;;;;;;;5.23;1.23;;;27.60;99.90;;;;;;5073936;28;20208;-74
2022/11/07 02:17:23;;;;;;;3.47;1.10;;;27.70;99.90;;;;;;5074180;28;20172;-74
2022/11/07 02:19:54;;;;;;;4.00;1.17;;;27.70;99.90;;;;;;5072143;28;20192;-74
2022/11/07 02:22:36;;;;;;;8.77;1.37;;;27.70;99.90;;;;;;5073183;28;20176;-72
2022/11/07 02:25:08;;;;;;;1.50;0.67;;;27.80;99.90;;;;;;5072595;28;20190;-74
2022/11/07 02:27:36;;;;;;;5.07;1.00;;;27.50;99.90;;;;;;5061709;28;20563;-73
2022/11/07 02:30:11;;;;;;;5.23;0.97;;;27.10;99.90;;;;;;5052713;28;20211;-74
2022/11/07 02:32:39;;;;;;;4.70;0.83;;;27.30;99.90;;;;;;5052014;28;20531;-72
2022/11/07 02:35:40;;;;;;;2.83;1.00;;;27.70;99.90;;;;;;5058503;28;20172;-74
2022/11/07 02:38:29;;;;;;;3.73;1.03;;;28.00;99.90;;;;;;5071390;28;20176;-74
2022/11/07 02:41:09;;;;;;;4.90;1.30;;;28.10;99.90;;;;;;5032778;28;20177;-71
2022/11/07 02:43:42;;;;;;;5.40;1.13;;;27.10;99.90;;;;;;5032862;28;20224;-73
2022/11/07 02:46:12;;;;;;;2.93;0.70;;;26.70;99.90;;;;;;5032843;28;20177;-74
2022/11/07 02:48:51;;;;;;;5.80;0.97;;;26.60;99.90;;;;;;5032389;28;20205;-74
2022/11/07 02:51:19;;;;;;;8.00;1.40;;;26.30;99.90;;;;;;5043919;28;20254;-74
2022/11/07 02:53:46;;;;;;;3.97;1.20;;;26.00;99.90;;;;;;5088133;28;20183;-73
2022/11/07 02:56:14;;;;;;;4.43;0.70;;;25.80;99.90;;;;;;5073581;28;20688;-72
2022/11/07 02:58:41;;;;;;;5.27;1.00;;;25.80;99.90;;;;;;5074003;28;20259;-73
2022/11/07 03:01:09;;;;;;;4.37;0.87;;;26.70;99.90;;;;;;5073314;28;20734;-74
2022/11/07 03:03:47;;;;;;;4.10;1.10;;;27.30;99.90;;;;;;5072679;28;20234;-73
2022/11/07 03:06:16;;;;;;;3.60;0.80;;;26.80;99.90;;;;;;5055602;28;20181;-73
2022/11/07 03:08:44;;;;;;;4.00;1.00;;;26.90;99.90;;;;;;5053290;28;20230;-72
2022/11/07 03:11:13;;;;;;;4.80;1.00;;;26.80;99.90;;;;;;5056519;28;20556;-73
2022/11/07 03:13:40;;;;;;;3.90;0.80;;;27.30;99.90;;;;;;5066921;28;20188;-75
2022/11/07 03:16:10;;;;;;;2.13;0.90;;;27.00;99.90;;;;;;5051588;28;20188;-72
2022/11/07 03:18:37;;;;;;;2.30;0.70;;;26.70;99.90;;;;;;5050805;28;20189;-75
2022/11/07 03:21:06;;;;;;;5.40;1.03;;;26.70;99.90;;;;;;5053726;28;20267;-74
2022/11/07 03:23:35;;;;;;;6.07;0.70;;;26.80;99.90;;;;;;5087773;28;20573;-74
2022/11/07 03:26:03;;;;;;;4.40;1.20;;;26.70;99.90;;;;;;5070669;28;20190;-75
2022/11/07 03:28:32;;;;;;;5.83;0.77;;;27.20;99.90;;;;;;5071560;28;20188;-72
2022/11/07 03:31:03;;;;;;;2.00;0.57;;;27.50;99.90;;;;;;5071916;28;20175;-74
2022/11/07 03:33:31;;;;;;;3.40;0.70;;;27.50;99.90;;;;;;5072012;28;20172;-75
2022/11/07 03:36:02;;;;;;;6.03;0.80;;;27.40;99.90;;;;;;5071430;28;20676;-73
2022/11/07 03:38:29;;;;;;;2.87;0.83;;;27.10;99.90;;;;;;5071914;28;20186;-74
2022/11/07 03:40:57;;;;;;;4.03;0.70;;;26.60;99.90;;;;;;5087143;28;20224;-71
2022/11/07 03:43:24;;;;;;;3.93;0.87;;;26.90;99.90;;;;;;5087232;28;20180;-74
2022/11/07 03:45:51;;;;;;;6.27;1.00;;;26.80;99.90;;;;;;5058930;28;20638;-73
2022/11/07 03:48:19;;;;;;;6.03;1.03;;;27.00;99.90;;;;;;5051456;28;20187;-73
2022/11/07 03:50:46;;;;;;;5.70;0.90;;;26.60;99.90;;;;;;5052469;28;20211;-73
2022/11/07 03:53:13;;;;;;;5.00;0.80;;;26.90;99.90;;;;;;5055930;28;20172;-75
2022/11/07 03:55:43;;;;;;;5.43;0.93;;;27.00;99.90;;;;;;5066698;28;20180;-72
2022/11/07 03:58:10;;;;;;;2.07;0.60;;;26.50;99.90;;;;;;5075659;28;20709;-69
2022/11/07 04:00:37;;;;;;;3.57;1.10;;;26.30;99.90;;;;;;5075369;28;20190;-70
2022/11/07 04:03:05;;;;;;;3.60;0.70;;;26.50;99.90;;;;;;5090955;28;20662;-71
2022/11/07 04:05:32;;;;;;;3.27;0.80;;;26.60;99.90;;;;;;5075604;28;20233;-72
2022/11/07 04:08:00;;;;;;;7.23;1.10;;;26.80;99.90;;;;;;5075304;28;20235;-72
2022/11/07 04:10:27;;;;;;;3.20;0.70;;;27.00;99.90;;;;;;5075483;28;20594;-71
2022/11/07 04:18:27;;;;;;;1.80;0.80;;;27.30;99.90;;;;;;5079969;28;20194;-69
2022/11/07 04:20:56;;;;;;;5.70;0.90;;;27.30;99.90;;;;;;5097628;28;20184;-69
2022/11/07 04:23:29;;;;;;;6.30;1.00;;;27.40;99.90;;;;;;5083794;28;20222;-73
2022/11/07 04:28:43;;;;;;;5.90;0.70;;;26.70;99.90;;;;;;5083539;28;20940;-70
2022/11/07 04:31:11;;;;;;;4.20;0.90;;;26.60;99.90;;;;;;5082652;28;20653;-73
2022/11/07 04:33:38;;;;;;;4.70;0.70;;;26.50;99.90;;;;;;5083481;28;20184;-70
2022/11/07 04:36:07;;;;;;;2.47;0.63;;;26.50;99.90;;;;;;5081944;28;20180;-74
2022/11/07 04:38:34;;;;;;;2.23;0.87;;;26.60;99.90;;;;;;5081083;28;20191;-73
2022/11/07 04:41:03;;;;;;;2.73;0.77;;;26.60;99.90;;;;;;5083317;28;20634;-71
2022/11/07 04:43:31;;;;;;;3.10;0.67;;;26.40;99.90;;;;;;5080556;28;20263;-73
2022/11/07 04:45:58;;;;;;;2.30;0.90;;;26.20;99.90;;;;;;5078803;28;20180;-73
2022/11/07 04:48:25;;;;;;;9.20;1.07;;;26.40;99.90;;;;;;5079821;28;20176;-72
2022/11/07 04:50:53;;;;;;;1.70;0.60;;;26.40;99.90;;;;;;5077680;28;20214;-70
2022/11/07 04:53:20;;;;;;;4.87;0.77;;;26.40;99.90;;;;;;5076919;28;20187;-70
2022/11/07 04:55:48;;;;;;;2.17;0.60;;;26.30;99.90;;;;;;5069838;28;20190;-74
2022/11/07 04:58:15;;;;;;;2.80;0.80;;;26.20;99.90;;;;;;5069950;28;20271;-70
2022/11/07 05:00:43;;;;;;;2.10;0.50;;;26.20;99.90;;;;;;5078275;28;20172;-69
2022/11/07 05:03:10;;;;;;;4.13;0.77;;;26.10;99.90;;;;;;5078894;28;20179;-71
2022/11/07 05:05:42;;;;;;;1.87;0.60;;;26.60;99.90;;;;;;5082609;28;20255;-70
2022/11/07 05:08:09;;;;;;;4.63;0.70;;;26.40;99.90;;;;;;5084921;28;20270;-68
2022/11/07 05:10:36;;;;;;;3.03;0.60;;;26.00;99.90;;;;;;5081569;28;20216;-72
2022/11/07 05:13:05;;;;;;;1.07;0.60;;;26.10;99.90;;;;;;5079776;28;20183;-72
2022/11/07 05:15:33;;;;;;;4.10;0.80;;;26.30;99.90;;;;;;5078243;28;20180;-71
2022/11/07 05:18:00;;;;;;;6.53;1.00;;;26.10;99.90;;;;;;5079281;28;20179;-72
2022/11/07 05:20:32;;;;;;;3.53;0.60;;;26.10;99.90;;;;;;5077307;28;20186;-74
2022/11/07 05:23:13;;;;;;;8.40;0.90;;;26.20;99.90;;;;;;5077325;28;20623;-74
2022/11/07 05:26:07;;;;;;;3.20;0.70;;;26.00;99.90;;;;;;5077636;28;20183;-73
2022/11/07 05:28:34;;;;;;;3.43;0.73;;;26.10;99.90;;;;;;5076343;28;20188;-70
2022/11/07 05:31:03;;;;;;;2.97;0.70;;;26.40;99.90;;;;;;5067348;28;20185;-71
2022/11/07 05:33:34;;;;;;;1.47;0.43;;;26.00;99.90;;;;;;5057490;28;20693;-72
2022/11/07 05:36:21;;;;;;;3.30;0.70;;;26.00;99.90;;;;;;5056718;28;20180;-73
2022/11/07 05:38:52;;;;;;;3.63;0.80;;;25.70;99.90;;;;;;5077744;28;20183;-74
2022/11/07 05:41:22;;;;;;;1.97;0.43;;;25.50;99.90;;;;;;5075774;28;20178;-70
2022/11/07 05:43:49;;;;;;;1.67;0.63;;;25.70;99.90;;;;;;5037367;28;20686;-73
2022/11/07 05:46:17;;;;;;;1.43;0.57;;;25.70;99.90;;;;;;5040576;28;20278;-71
2022/11/07 05:48:44;;;;;;;1.90;0.80;;;25.90;99.90;;;;;;5093100;28;20302;-73
2022/11/07 05:51:12;;;;;;;3.30;0.87;;;25.70;99.90;;;;;;5078135;28;20180;-71
2022/11/07 05:53:39;;;;;;;4.57;0.70;;;25.30;99.90;;;;;;5078241;28;20190;-72
2022/11/07 05:56:07;;;;;;;4.63;0.93;;;25.30;99.90;;;;;;5078563;28;20179;-72
2022/11/07 05:58:35;;;;;;;3.57;0.40;;;25.70;99.90;;;;;;5078195;28;20179;-72
2022/11/07 06:01:07;;;;;;;3.03;0.70;;;25.80;99.90;;;;;;5077653;28;20580;-70
2022/11/07 06:03:34;;;;;;;1.00;0.60;;;25.70;99.90;;;;;;5078287;28;20270;-70
2022/11/07 06:06:02;;;;;;;2.03;0.60;;;25.30;99.90;;;;;;5077703;28;20238;-72
2022/11/07 06:08:32;;;;;;;3.10;0.50;;;25.20;99.90;;;;;;5077700;28;20191;-72
2022/11/07 06:11:04;;;;;;;2.43;0.60;;;25.10;99.90;;;;;;5077776;28;20196;-70
2022/11/07 06:13:32;;;;;;;1.80;0.70;;;25.00;99.90;;;;;;5077170;28;20272;-73
2022/11/07 06:15:59;;;;;;;2.77;0.67;;;24.90;99.90;;;;;;5078270;28;20294;-69
2022/11/07 06:18:27;;;;;;;2.50;0.73;;;25.10;99.90;;;;;;5078096;28;20182;-69
2022/11/07 06:20:54;;;;;;;3.17;0.70;;;25.10;99.90;;;;;;5069604;28;20188;-73
2022/11/07 06:23:22;;;;;;;2.00;0.87;;;24.90;99.90;;;;;;5063830;28;20337;-71
2022/11/07 06:25:50;;;;;;;7.37;1.10;;;25.00;99.90;;;;;;5076641;28;20211;-71
2022/11/07 06:28:18;;;;;;;1.80;0.60;;;24.80;99.90;;;;;;5076587;28;20270;-69
2022/11/07 06:30:45;;;;;;;4.30;0.80;;;24.60;99.90;;;;;;5076456;28;20313;-71
2022/11/07 06:33:16;;;;;;;1.73;0.63;;;24.30;99.90;;;;;;5076214;28;20176;-73
2022/11/07 06:35:44;;;;;;;3.70;1.40;;;24.20;99.90;;;;;;5078928;28;20644;-76
2022/11/07 06:38:14;;;;;;;5.10;2.03;;;24.20;99.90;;;;;;5078814;28;20575;-71
2022/11/07 06:40:42;;;;;;;4.53;2.07;;;24.20;99.90;;;;;;5079490;28;20183;-70
2022/11/07 06:43:12;;;;;;;1.87;0.63;;;24.40;99.90;;;;;;5078507;28;20269;-69
2022/11/07 06:45:41;;;;;;;3.73;0.57;;;24.20;99.90;;;;;;5082044;28;20202;-71
2022/11/07 06:48:08;;;;;;;1.93;0.80;;;24.20;99.90;;;;;;5056623;28;20176;-71
2022/11/07 06:50:36;;;;;;;1.67;0.60;;;24.10;99.90;;;;;;5055787;28;20223;-74
2022/11/07 06:53:06;;;;;;;1.70;0.50;;;24.20;99.90;;;;;;5062194;28;20206;-75
2022/11/07 06:55:37;;;;;;;2.07;0.60;;;24.30;99.90;;;;;;5073715;28;20179;-70
2022/11/07 06:58:05;;;;;;;1.93;0.50;;;24.10;99.90;;;;;;5074384;28;20173;-69
2022/11/07 07:00:34;;;;;;;1.53;0.50;;;23.80;99.90;;;;;;5074633;28;20197;-68
2022/11/07 07:03:05;;;;;;;1.20;0.40;;;23.80;99.90;;;;;;5075719;28;20190;-66
2022/11/07 07:05:34;;;;;;;3.40;0.97;;;23.60;99.90;;;;;;5093024;28;20180;-66
2022/11/07 07:08:02;;;;;;;1.90;0.70;;;23.50;99.90;;;;;;5076892;28;20258;-66
2022/11/07 07:10:30;;;;;;;2.53;0.73;;;23.30;99.90;;;;;;5091254;28;20219;-66
2022/11/07 07:12:59;;;;;;;2.47;0.80;;;23.30;99.90;;;;;;5074583;28;20173;-69
2022/11/07 07:15:27;;;;;;;1.83;0.67;;;23.30;99.90;;;;;;5075354;28;20187;-73
2022/11/07 07:17:59;;;;;;;0.53;0.40;;;23.20;99.90;;;;;;5074068;28;20176;-73
2022/11/07 07:20:27;;;;;;;4.60;0.53;;;23.10;99.90;;;;;;5076923;28;20530;-76
2022/11/07 07:22:55;;;;;;;4.80;0.80;;;23.00;99.90;;;;;;5071309;28;20547;-74
2022/11/07 07:25:23;;;;;;;3.07;0.60;;;23.00;99.90;;;;;;5074923;28;20198;-73
2022/11/07 07:27:50;;;;;;;4.80;0.67;;;23.00;99.90;;;;;;5060038;28;20188;-72
2022/11/07 07:30:18;;;;;;;2.47;0.70;;;23.20;99.90;;;;;;5076362;28;20607;-73
2022/11/07 07:32:45;;;;;;;1.97;0.60;;;23.10;99.90;;;;;;5076891;28;20258;-73
2022/11/07 07:35:13;;;;;;;2.83;0.60;;;23.00;99.90;;;;;;5076723;28;20385;-72
2022/11/07 07:37:40;;;;;;;3.80;0.73;;;22.80;99.90;;;;;;5076648;28;20664;-73
2022/11/07 07:40:10;;;;;;;2.60;0.77;;;22.50;99.90;;;;;;5077599;28;20190;-73
2022/11/07 07:42:42;;;;;;;1.20;0.60;;;22.50;99.90;;;;;;5060377;28;20190;-74
2022/11/07 07:45:14;;;;;;;2.23;0.57;;;22.50;99.90;;;;;;5078116;28;20694;-73
2022/11/07 07:47:42;;;;;;;2.23;0.70;;;22.50;99.90;;;;;;5077137;28;20590;-73
2022/11/07 07:50:11;;;;;;;4.13;0.80;;;22.50;99.90;;;;;;5077420;28;20212;-73
2022/11/07 07:52:39;;;;;;;2.00;0.60;;;22.30;99.90;;;;;;5060131;28;20194;-72
2022/11/07 07:55:08;;;;;;;1.00;0.60;;;22.20;99.90;;;;;;5077784;28;20195;-74
2022/11/07 07:57:42;;;;;;;4.40;0.90;;;22.10;99.90;;;;;;5092528;28;20184;-72
2022/11/07 08:00:11;;;;;;;3.30;0.80;;;21.90;99.90;;;;;;5076851;28;20172;-71
2022/11/07 08:02:42;;;;;;;5.70;0.93;;;21.70;99.90;;;;;;5074765;28;20261;-70
2022/11/07 08:05:14;;;;;;;1.93;0.70;;;21.50;99.90;;;;;;5075916;28;20184;-70
2022/11/07 08:07:48;;;;;;;4.30;0.90;;;21.40;99.90;;;;;;5075827;28;20695;-69
2022/11/07 08:10:17;;;;;;;5.13;0.87;;;21.20;99.90;;;;;;5075152;28;20297;-70
2022/11/07 08:12:47;;;;;;;1.53;1.00;;;21.10;99.90;;;;;;5076462;28;20195;-70
2022/11/07 08:15:16;;;;;;;5.00;1.17;;;21.00;99.90;;;;;;5075765;28;20720;-69
2022/11/07 08:17:45;;;;;;;2.60;1.17;;;20.90;99.90;;;;;;5073750;28;20177;-71
2022/11/07 08:20:15;;;;;;;3.00;0.93;;;20.80;99.90;;;;;;5078890;28;20180;-72
2022/11/07 08:22:44;;;;;;;4.47;1.00;;;20.80;99.90;;;;;;5078513;28;20172;-71
2022/11/07 08:25:13;;;;;;;3.03;0.53;;;20.70;99.90;;;;;;5061256;28;20200;-70
2022/11/07 08:27:41;;;;;;;2.93;1.03;;;20.60;99.90;;;;;;5078961;28;20178;-70
2022/11/07 08:30:10;;;;;;;5.23;1.23;;;20.50;99.90;;;;;;5078989;28;20210;-69
2022/11/07 08:32:40;;;;;;;3.60;0.70;;;20.40;99.90;;;;;;5078329;28;20193;-71
2022/11/07 08:35:09;;;;;;;2.47;0.77;;;20.40;99.90;;;;;;5094257;28;20274;-70
2022/11/07 08:37:39;;;;;;;3.30;0.70;;;20.30;99.90;;;;;;5079631;28;20272;-72
2022/11/07 08:40:08;;;;;;;3.33;1.00;;;20.20;99.90;;;;;;5082069;28;20219;-72
2022/11/07 08:42:40;;;;;;;4.80;0.60;;;20.10;99.90;;;;;;5080383;28;20195;-73
2022/11/07 08:45:08;;;;;;;5.97;1.00;;;20.00;99.90;;;;;;5080830;28;20187;-69
2022/11/07 08:47:36;;;;;;;4.17;0.97;;;20.00;99.90;;;;;;5079928;28;20198;-70
2022/11/07 08:50:06;;;;;;;2.63;0.70;;;19.90;99.90;;;;;;5078286;28;20207;-74
2022/11/07 08:52:35;;;;;;;3.83;0.73;;;19.90;99.90;;;;;;5077886;28;20180;-72
2022/11/07 08:55:09;;;;;;;5.17;1.27;;;19.80;99.90;;;;;;5078086;28;20180;-73
2022/11/07 08:57:36;;;;;;;3.17;0.80;;;19.80;99.90;;;;;;5076798;28;20260;-72
2022/11/07 09:00:05;;;;;;;5.03;1.33;;;19.70;99.90;;;;;;5078677;28;20243;-73
2022/11/07 09:02:33;;;;;;;4.97;0.90;;;19.70;99.90;;;;;;5094423;28;20247;-71
2022/11/07 09:05:01;;;;;;;3.90;0.93;;;19.60;99.90;;;;;;5095114;28;20556;-72
2022/11/07 09:07:29;;;;;;;5.23;0.80;;;19.60;99.90;;;;;;5067521;28;20180;-72
2022/11/07 09:09:56;;;;;;;5.43;1.20;;;19.60;99.90;;;;;;5080423;28;20211;-72
2022/11/07 09:12:27;;;;;;;5.50;1.10;;;19.50;99.90;;;;;;5080806;28;20172;-72
2022/11/07 09:14:58;;;;;;;3.20;1.00;;;19.50;99.90;;;;;;5081116;28;20191;-72
2022/11/07 09:17:30;;;;;;;5.37;0.90;;;19.50;99.90;;;;;;5080985;28;20533;-72
2022/11/07 09:19:57;;;;;;;5.03;1.10;;;19.40;99.90;;;;;;5080610;28;20165;-73
2022/11/07 09:22:25;;;;;;;3.50;0.93;;;19.40;99.90;;;;;;5081296;28;20189;-73
2022/11/07 09:25:03;;;;;;;3.17;0.87;;;19.40;99.90;;;;;;5081973;28;20198;-73
2022/11/07 09:27:31;;;;;;;5.73;1.07;;;19.40;99.90;;;;;;5082482;28;20176;-71
2022/11/07 09:29:59;;;;;;;5.17;1.13;;;19.40;99.90;;;;;;5083083;28;20269;-73
2022/11/07 09:32:27;;;;;;;5.40;1.10;;;19.30;99.90;;;;;;5081690;28;20277;-72
2022/11/07 09:34:57;;;;;;;2.10;0.90;;;19.30;99.90;;;;;;5081666;28;20185;-72
2022/11/07 09:37:33;;;;;;;3.67;0.80;;;19.30;99.90;;;;;;5082825;28;20231;-72
2022/11/07 09:40:16;;;;;;;2.67;0.87;;;19.30;99.90;;;;;;5080920;28;20232;-72
2022/11/07 09:43:09;;;;;;;4.77;0.93;;;19.30;99.90;;;;;;5082867;28;20183;-71
2022/11/07 09:46:10;;;;;;;3.03;1.00;;;19.30;99.90;;;;;;5081937;28;20248;-70
2022/11/07 09:48:51;;;;;;;4.90;0.83;;;19.20;99.90;;;;;;5080229;28;20203;-72
2022/11/07 09:51:43;;;;;;;4.30;1.30;;;19.20;99.90;;;;;;5066196;28;20199;-71
2022/11/07 09:54:21;;;;;;;3.87;0.90;;;19.10;99.90;;;;;;5081917;28;20193;-72
2022/11/07 09:56:52;;;;;;;5.03;1.27;;;19.00;99.90;;;;;;5080240;28;20179;-70
2022/11/07 09:59:29;;;;;;;2.67;0.83;;;19.00;99.90;;;;;;5080704;28;20586;-70
2022/11/07 10:01:57;;;;;;;3.90;1.10;;;19.00;99.90;;;;;;5096109;28;20322;-70
2022/11/07 10:04:25;;;;;;;7.43;1.10;;;18.90;99.90;;;;;;5097459;28;20192;-70
2022/11/07 10:07:13;;;;;;;5.43;1.77;;;18.90;99.90;;;;;;5080801;28;20222;-69
2022/11/07 10:09:57;;;;;;;4.67;1.17;;;18.90;99.90;;;;;;5080702;28;20202;-71
2022/11/07 10:12:27;;;;;;;2.97;0.80;;;18.90;99.90;;;;;;5081228;28;20703;-71
2022/11/07 10:15:16;;;;;;;2.07;0.90;;;18.80;99.90;;;;;;5081408;28;20325;-72
2022/11/07 10:17:58;;;;;;;4.37;1.27;;;18.70;99.90;;;;;;5080860;28;20547;-72
2022/11/07 10:21:10;;;;;;;9.53;1.17;;;18.70;99.90;;;;;;5082719;28;20187;-71
2022/11/07 10:23:45;;;;;;;2.80;1.10;;;18.60;99.90;;;;;;5057877;28;20189;-71
2022/11/07 10:26:30;;;;;;;4.53;0.93;;;18.40;99.90;;;;;;5077249;28;20202;-71
2022/11/07 10:29:27;;;;;;;7.10;1.00;;;18.40;99.90;;;;;;5093607;28;20190;-69
2022/11/07 10:32:09;;;;;;;6.07;1.30;;;18.30;99.90;;;;;;5077918;28;20200;-72
2022/11/07 10:34:43;;;;;;;4.60;1.00;;;18.30;99.90;;;;;;5078583;28;20214;-72
2022/11/07 10:37:11;;;;;;;5.30;1.33;;;18.20;99.90;;;;;;5075297;28;20258;-72
2022/11/07 10:39:39;;;;;;;4.43;1.13;;;18.10;99.90;;;;;;5076333;28;20227;-72
2022/11/07 10:42:23;;;;;;;5.40;1.07;;;18.00;99.90;;;;;;5074125;28;20202;-71
2022/11/07 10:44:53;;;;;;;5.13;1.33;;;17.90;99.90;;;;;;5074351;28;20656;-70
2022/11/07 10:47:24;;;;;;;4.57;1.07;;;17.80;99.90;;;;;;5074033;28;20207;-70
2022/11/07 10:49:59;;;;;;;3.53;1.07;;;17.70;99.90;;;;;;5073944;28;20755;-70
2022/11/07 10:52:28;;;;;;;1.90;0.63;;;17.70;99.90;;;;;;5085411;28;20551;-71
2022/11/07 10:55:06;;;;;;;5.03;1.20;;;17.70;99.90;;;;;;5053569;28;20188;-69
2022/11/07 10:57:35;;;;;;;5.23;1.40;;;17.60;99.90;;;;;;5051186;28;20185;-70
2022/11/07 11:00:20;;;;;;;5.33;1.20;;;17.60;99.90;;;;;;5053045;28;20658;-71
2022/11/07 11:02:53;;;;;;;4.67;1.10;;;17.50;99.90;;;;;;5068109;28;20262;-70
2022/11/07 11:05:38;;;;;;;1.97;0.90;;;17.40;99.90;;;;;;5053261;28;20650;-71
2022/11/07 11:08:18;;;;;;;6.20;1.07;;;17.30;99.90;;;;;;5052496;28;20173;-70
2022/11/07 11:10:47;;;;;;;2.83;1.00;;;17.30;99.90;;;;;;5053564;28;20673;-71
2022/11/07 11:13:32;;;;;;;5.83;1.57;;;17.20;99.90;;;;;;5053715;28;20169;-69
2022/11/07 11:16:22;;;;;;;1.80;0.90;;;17.10;99.90;;;;;;5053367;28;20172;-68
2022/11/07 11:19:00;;;;;;;3.43;1.10;;;17.00;99.90;;;;;;5068146;28;20177;-71
2022/11/07 11:21:41;;;;;;;6.17;1.33;;;17.00;99.90;;;;;;5052992;28;20169;-70
2022/11/07 11:24:32;;;;;;;5.57;1.10;;;16.90;99.90;;;;;;5053047;28;20172;-70
2022/11/07 11:27:06;;;;;;;2.27;0.90;;;16.90;99.90;;;;;;5051503;28;20177;-71
2022/11/07 11:29:40;;;;;;;1.70;1.50;;;16.90;99.90;;;;;;5051648;28;20191;-71
2022/11/07 11:32:20;;;;;;;4.07;0.87;;;16.80;99.90;;;;;;5053847;28;20549;-70
2022/11/07 11:35:01;;;;;;;5.20;1.17;;;16.80;99.90;;;;;;5069328;28;20532;-72
2022/11/07 11:37:32;;;;;;;10.00;1.77;;;16.80;99.90;;;;;;5053768;28;20662;-72
2022/11/07 11:40:11;;;;;;;3.30;1.10;;;16.80;99.90;;;;;;5053182;28;20638;-71
2022/11/07 11:42:52;;;;;;;2.47;1.20;;;16.80;99.90;;;;;;5050340;28;20199;-72
2022/11/07 11:45:40;;;;;;;3.50;1.30;;;16.70;99.90;;;;;;5050557;28;20175;-72
2022/11/07 11:48:26;;;;;;;5.27;1.40;;;16.70;99.90;;;;;;5049213;28;20196;-72
2022/11/07 11:51:21;;;;;;;3.53;1.20;;;16.60;99.90;;;;;;5053377;28;20212;-71
2022/11/07 11:53:49;;;;;;;6.50;1.43;;;16.60;99.90;;;;;;5053374;28;20523;-72
2022/11/07 11:56:39;;;;;;;3.57;1.17;;;16.60;99.90;;;;;;5051940;28;20661;-71
2022/11/07 11:59:39;;;;;;;3.67;1.10;;;16.60;99.90;;;;;;5052677;28;20222;-71
2022/11/07 12:02:29;;;;;;;4.50;1.10;;;16.50;99.90;;;;;;5050241;28;20756;-70
2022/11/07 12:05:14;;;;;;;6.40;1.17;;;16.50;99.90;;;;;;5052795;28;20185;-72
2022/11/07 12:07:51;;;;;;;3.63;1.37;;;16.50;99.90;;;;;;5051242;28;20704;-73
2022/11/07 12:10:19;;;;;;;5.03;1.40;;;16.40;99.90;;;;;;5052983;28;20219;-72
2022/11/07 12:13:16;;;;;;;9.40;1.37;;;16.40;99.90;;;;;;5054306;28;20184;-71
2022/11/07 12:16:01;;;;;;;4.40;1.50;;;16.40;99.90;;;;;;5055782;28;20198;-71
2022/11/07 12:19:03;;;;;;;3.20;1.30;;;16.20;99.90;;;;;;5057456;28;20177;-71
2022/11/07 12:21:33;;;;;;;2.13;1.10;;;16.20;99.90;;;;;;5048526;28;20198;-72
2022/11/07 12:24:37;;;;;;;4.03;1.43;;;16.20;99.90;;;;;;5056795;28;20169;-72
2022/11/07 12:27:10;;;;;;;2.97;1.10;;;16.10;99.90;;;;;;5056797;28;20176;-70
2022/11/07 12:30:03;;;;;;;3.40;1.10;;;16.10;99.90;;;;;;5056794;28;20561;-72
2022/11/07 12:33:11;;;;;;;4.57;1.53;;;16.10;99.90;;;;;;5055884;28;20184;-72
2022/11/07 12:35:54;;;;;;;4.27;1.60;;;16.00;99.90;;;;;;5057398;28;20645;-70
2022/11/07 12:38:45;;;;;;;4.10;1.40;;;16.00;99.90;;;;;;5057800;28;20164;-73
2022/11/07 12:41:27;;;;;;;6.07;1.33;;;16.00;99.90;;;;;;5064615;28;20673;-71
2022/11/07 12:44:07;;;;;;;4.47;2.27;;;15.90;99.90;;;;;;5068390;28;20173;-68
2022/11/07 12:46:58;;;;;;;3.37;1.70;;;15.90;99.90;;;;;;5062706;28;20200;-73
2022/11/07 12:50:03;;;;;;;6.47;1.80;;;15.90;99.90;;;;;;5057218;28;20211;-71
2022/11/07 12:53:01;;;;;;;5.37;1.77;;;15.80;99.90;;;;;;5056432;28;20256;-71
2022/11/07 12:55:40;;;;;;;4.03;1.40;;;15.80;99.90;;;;;;5056259;28;20177;-70
2022/11/07 12:58:20;;;;;;;3.60;1.50;;;15.70;99.90;;;;;;5056236;28;20169;-73
2022/11/07 13:00:49;;;;;;;2.63;1.17;;;15.70;99.90;;;;;;5056095;28;20231;-71
2022/11/07 13:03:44;;;;;;;5.83;1.43;;;15.70;99.90;;;;;;5056020;28;20177;-73
2022/11/07 13:06:27;;;;;;;5.20;1.60;;;15.70;99.90;;;;;;5056065;28;20642;-72
2022/11/07 13:09:13;;;;;;;3.73;1.90;;;15.60;99.90;;;;;;5055968;28;20547;-71
2022/11/07 13:11:47;;;;;;;5.93;1.50;;;15.60;99.90;;;;;;5056088;28;20558;-73
2022/11/07 13:14:30;;;;;;;4.23;1.67;;;15.50;99.90;;;;;;5055942;28;20229;-73
2022/11/07 13:17:29;;;;;;;3.50;1.70;;;15.50;99.90;;;;;;5091601;28;20175;-70
2022/11/07 13:20:24;;;;;;;4.53;1.50;;;15.50;99.90;;;;;;5075383;28;20645;-71
2022/11/07 13:22:58;;;;;;;5.60;1.70;;;15.50;99.90;;;;;;5074897;28;20195;-73
2022/11/07 13:25:25;;;;;;;5.73;1.90;;;15.40;99.90;;;;;;5075802;28;20176;-71
2022/11/07 13:27:56;;;;;;;6.07;1.50;;;15.40;99.90;;;;;;5075467;28;20244;-72